Delair, New Jersey
Current Conditions -  °F | °C
As of 7:54 PM on Saturday 25 Oct 2014 (Local Time) from KPNE Reporting Station
Few Clouds Few Clouds  
Wind Chill: 65°   Ceiling: Unl
Heat Index: 65°   Visibility: 10mi
Dew Point: 42°   Wind: 10mph
Humidity: 43%   Direction: 240°WSW
Pressure: 29.69"   Gusts: NA
Location:  39.975°N, 75.0476°W
Report Text: KPNE 252354Z 24009KT 10SM FEW065 18/06 A2969 RMK AO2 SLP054 T01830056 10211 20178 56007
Loading
Personal Weather Stations






























Interactive Weather Map
Tropical Storm Tracking
New forecast layout! Learn more

10-Day Weather Forecast

Advertisements
Track Severe Weather on mobile